createdAt,value
2017-03-21T00:01:07.088Z,0
2017-03-21T00:02:16.399Z,0
2017-03-21T00:03:25.787Z,0
2017-03-21T00:04:34.870Z,0
2017-03-21T00:05:44.246Z,0
2017-03-21T00:06:53.315Z,0
2017-03-21T00:08:02.391Z,0
2017-03-21T00:09:12.079Z,0
2017-03-21T00:10:21.705Z,0
2017-03-21T00:11:30.402Z,0
2017-03-21T00:12:40.081Z,0
2017-03-21T00:13:49.093Z,0
2017-03-21T00:14:58.792Z,0
2017-03-21T00:16:08.471Z,0
2017-03-21T00:17:17.537Z,0
2017-03-21T00:18:27.217Z,0
2017-03-21T00:19:36.593Z,0
2017-03-21T00:20:45.359Z,0
2017-03-21T00:21:54.360Z,0
2017-03-21T00:23:04.047Z,0
2017-03-21T00:24:13.664Z,0
2017-03-21T00:25:22.965Z,0
2017-03-21T00:26:32.035Z,0
2017-03-21T00:27:41.413Z,0
2017-03-21T00:28:50.492Z,0
2017-03-21T00:29:59.568Z,0
2017-03-21T00:31:09.185Z,0
2017-03-21T00:32:17.947Z,0
2017-03-21T00:33:27.931Z,0
2017-03-21T00:34:36.930Z,0
2017-03-21T00:35:46.002Z,0
2017-03-21T00:36:55.395Z,0
2017-03-21T00:38:04.496Z,0
2017-03-21T00:39:14.498Z,0
2017-03-21T00:40:24.111Z,0
2017-03-21T00:41:33.179Z,0
2017-03-21T00:42:42.559Z,0
2017-03-21T00:43:52.245Z,0
2017-03-21T00:45:02.163Z,0
2017-03-21T00:46:10.920Z,0
2017-03-21T00:47:20.010Z,0
2017-03-21T00:48:29.990Z,0
2017-03-21T00:49:39.072Z,0
2017-03-21T00:50:48.142Z,0
2017-03-21T00:51:56.906Z,0
2017-03-21T00:53:06.896Z,0
2017-03-21T00:54:16.277Z,0
2017-03-21T00:55:25.048Z,0
2017-03-21T00:56:34.355Z,0
2017-03-21T00:57:43.729Z,0
2017-03-21T00:58:53.391Z,0
2017-03-21T01:00:02.461Z,0
2017-03-21T01:01:11.522Z,0
2017-03-21T01:02:20.582Z,0
2017-03-21T01:03:29.355Z,0
2017-03-21T01:04:38.924Z,0
2017-03-21T01:05:48.297Z,0
2017-03-21T01:06:57.057Z,0
2017-03-21T01:08:06.432Z,0
2017-03-21T01:09:15.813Z,0
2017-03-21T01:10:24.887Z,0
2017-03-21T01:11:33.927Z,0
2017-03-21T01:12:43.311Z,0
2017-03-21T01:13:52.694Z,0
2017-03-21T01:15:02.275Z,0
2017-03-21T01:16:10.970Z,0
2017-03-21T01:17:20.642Z,0
2017-03-21T01:18:30.632Z,0
2017-03-21T01:19:40.308Z,0
2017-03-21T01:20:49.371Z,0
2017-03-21T01:21:58.070Z,0
2017-03-21T01:23:07.750Z,0
2017-03-21T01:24:17.136Z,0
2017-03-21T01:25:26.512Z,0
2017-03-21T01:26:35.887Z,0
2017-03-21T01:27:45.265Z,0
2017-03-21T01:28:55.254Z,0
2017-03-21T01:30:04.627Z,0
2017-03-21T01:31:13.627Z,0
2017-03-21T01:32:23.002Z,0
2017-03-21T01:33:32.374Z,0
2017-03-21T01:34:41.112Z,0
2017-03-21T01:35:49.865Z,0
2017-03-21T01:36:58.628Z,0
2017-03-21T01:38:07.700Z,0
2017-03-21T01:39:16.709Z,0
2017-03-21T01:40:26.091Z,0
2017-03-21T01:41:35.151Z,0
2017-03-21T01:42:44.539Z,0
2017-03-21T01:43:54.519Z,0
2017-03-21T01:45:04.204Z,0
2017-03-21T01:46:13.562Z,0
2017-03-21T01:47:22.371Z,0
2017-03-21T01:48:32.377Z,0
2017-03-21T01:49:42.068Z,0
2017-03-21T01:50:51.069Z,0
2017-03-21T01:52:00.144Z,0
2017-03-21T01:53:10.644Z,0
2017-03-21T01:54:20.342Z,0
2017-03-21T01:55:29.415Z,0
2017-03-21T01:56:38.488Z,0
2017-03-21T01:57:47.866Z,0
2017-03-21T01:58:57.795Z,0
2017-03-21T02:00:06.875Z,0
2017-03-21T02:01:15.647Z,0
2017-03-21T02:02:25.026Z,0
2017-03-21T02:03:35.323Z,0
2017-03-21T02:04:44.602Z,0
2017-03-21T02:05:53.674Z,0
2017-03-21T02:07:02.443Z,0
2017-03-21T02:08:12.764Z,0
2017-03-21T02:09:22.458Z,0
2017-03-21T02:10:32.138Z,0
2017-03-21T02:11:41.512Z,0
2017-03-21T02:12:51.487Z,0
2017-03-21T02:14:01.772Z,0
2017-03-21T02:15:10.843Z,0
2017-03-21T02:16:20.223Z,0
2017-03-21T02:17:29.000Z,0
2017-03-21T02:18:38.919Z,0
2017-03-21T02:19:47.996Z,0
2017-03-21T02:20:56.765Z,0
2017-03-21T02:22:05.834Z,0
2017-03-21T02:23:15.215Z,0
2017-03-21T02:24:25.129Z,0
2017-03-21T02:25:33.903Z,0
2017-03-21T02:26:42.976Z,0
2017-03-21T02:27:52.051Z,0
2017-03-21T02:29:01.736Z,0
2017-03-21T02:30:11.044Z,0
2017-03-21T02:31:20.365Z,0
2017-03-21T02:32:29.430Z,0
2017-03-21T02:33:38.804Z,0
2017-03-21T02:34:48.174Z,0
2017-03-21T02:35:57.244Z,0
2017-03-21T02:37:06.311Z,0
2017-03-21T02:38:16.300Z,0
2017-03-21T02:39:26.285Z,0
2017-03-21T02:40:36.169Z,0
2017-03-21T02:41:45.445Z,0
2017-03-21T02:42:55.123Z,0
2017-03-21T02:44:04.138Z,0
2017-03-21T02:45:13.202Z,0
2017-03-21T02:46:22.820Z,0
2017-03-21T02:47:31.893Z,0
2017-03-21T02:48:41.224Z,0
2017-03-21T02:49:49.982Z,0
2017-03-21T02:50:59.592Z,0
2017-03-21T02:52:08.863Z,0
2017-03-21T02:53:18.555Z,0
2017-03-21T02:54:28.540Z,0
2017-03-21T02:55:37.304Z,0
2017-03-21T02:56:46.305Z,0
2017-03-21T02:57:56.530Z,0
2017-03-21T02:59:05.610Z,0
2017-03-21T03:00:15.218Z,0
2017-03-21T03:01:24.628Z,0
2017-03-21T03:02:33.930Z,0
2017-03-21T03:03:43.800Z,0
2017-03-21T03:04:53.466Z,0
2017-03-21T03:06:02.848Z,0
2017-03-21T03:07:12.178Z,0
2017-03-21T03:08:22.169Z,0
2017-03-21T03:09:31.862Z,0
2017-03-21T03:10:40.634Z,0
2017-03-21T03:11:49.716Z,0
2017-03-21T03:12:58.790Z,0
2017-03-21T03:14:08.784Z,0
2017-03-21T03:15:18.169Z,0
2017-03-21T03:16:27.743Z,0
2017-03-21T03:17:37.734Z,0
2017-03-21T03:18:47.411Z,0
2017-03-21T03:19:57.089Z,0
2017-03-21T03:21:06.162Z,0
2017-03-21T03:22:15.235Z,0
2017-03-21T03:23:24.549Z,0
2017-03-21T03:24:33.933Z,0
2017-03-21T03:25:43.308Z,0
2017-03-21T03:26:52.378Z,0
2017-03-21T03:28:02.361Z,0
2017-03-21T03:29:12.348Z,0
2017-03-21T03:30:21.344Z,0
2017-03-21T03:31:30.736Z,0
2017-03-21T03:32:40.732Z,0
2017-03-21T03:33:49.815Z,0
2017-03-21T03:34:59.129Z,0
2017-03-21T03:36:08.504Z,0
2017-03-21T03:37:17.877Z,0
2017-03-21T03:38:27.566Z,0
2017-03-21T03:39:37.249Z,0
2017-03-21T03:40:53.787Z,0
2017-03-21T03:42:03.478Z,0
2017-03-21T03:43:13.166Z,0
2017-03-21T03:44:22.857Z,0
2017-03-21T03:45:32.234Z,0
2017-03-21T03:46:41.308Z,0
2017-03-21T03:47:50.694Z,0
2017-03-21T03:49:00.059Z,0
2017-03-21T03:50:08.817Z,0
2017-03-21T03:51:17.579Z,0
2017-03-21T03:52:26.952Z,0
2017-03-21T03:53:36.330Z,0
2017-03-21T03:54:45.393Z,0
2017-03-21T03:55:54.762Z,0
2017-03-21T03:57:04.140Z,0
2017-03-21T03:58:13.525Z,0
2017-03-21T03:59:23.202Z,0
2017-03-21T04:00:32.286Z,0
2017-03-21T04:01:41.044Z,0
2017-03-21T04:02:50.968Z,0
2017-03-21T04:04:01.252Z,0
2017-03-21T04:05:09.951Z,0
2017-03-21T04:06:18.719Z,0
2017-03-21T04:07:27.786Z,0
2017-03-21T04:08:37.769Z,0
2017-03-21T04:09:47.743Z,0
2017-03-21T04:10:57.112Z,0
2017-03-21T04:12:06.189Z,0
2017-03-21T04:13:16.162Z,0
2017-03-21T04:14:26.144Z,0
2017-03-21T04:15:35.136Z,0
2017-03-21T04:16:44.198Z,0
2017-03-21T04:17:53.911Z,0
2017-03-21T04:19:03.820Z,0
2017-03-21T04:20:13.191Z,0
2017-03-21T04:21:22.247Z,0
2017-03-21T04:22:31.247Z,0
2017-03-21T04:23:40.570Z,0
2017-03-21T04:24:49.640Z,0
2017-03-21T04:25:59.005Z,0
2017-03-21T04:27:08.379Z,0
2017-03-21T04:28:17.963Z,0
2017-03-21T04:29:27.336Z,0
2017-03-21T04:30:36.391Z,0
2017-03-21T04:31:45.752Z,0
2017-03-21T04:32:54.813Z,0
2017-03-21T04:34:04.501Z,0
2017-03-21T04:35:13.866Z,0
2017-03-21T04:36:23.242Z,0
2017-03-21T04:37:32.050Z,0
2017-03-21T04:38:41.155Z,0
2017-03-21T04:39:50.521Z,0
2017-03-21T04:41:00.191Z,0
2017-03-21T04:42:09.253Z,0
2017-03-21T04:43:18.673Z,0
2017-03-21T04:44:28.340Z,0
2017-03-21T04:45:37.394Z,0
2017-03-21T04:46:46.140Z,0
2017-03-21T04:47:55.207Z,0
2017-03-21T04:49:04.581Z,0
2017-03-21T04:50:13.653Z,0
2017-03-21T04:51:23.019Z,0
2017-03-21T04:52:32.082Z,0
2017-03-21T04:53:41.159Z,0
2017-03-21T04:54:50.524Z,0
2017-03-21T04:55:59.891Z,0
2017-03-21T04:57:09.190Z,0
2017-03-21T04:58:19.081Z,0
2017-03-21T04:59:29.062Z,0
2017-03-21T05:00:38.126Z,0
2017-03-21T05:01:47.511Z,0
2017-03-21T05:02:56.580Z,0
2017-03-21T05:04:06.263Z,0
2017-03-21T05:05:15.327Z,0
2017-03-21T05:06:24.697Z,0
2017-03-21T05:07:33.745Z,0
2017-03-21T05:08:42.821Z,0
2017-03-21T05:09:52.499Z,0
2017-03-21T05:11:02.178Z,0
2017-03-21T05:12:10.885Z,0
2017-03-21T05:13:20.550Z,0
2017-03-21T05:14:29.860Z,0
2017-03-21T05:15:38.920Z,0
2017-03-21T05:16:47.983Z,0
2017-03-21T05:17:57.362Z,0
2017-03-21T05:19:07.038Z,0
2017-03-21T05:20:16.103Z,0
2017-03-21T05:21:25.175Z,0
2017-03-21T05:22:34.741Z,0
2017-03-21T05:23:44.648Z,0
2017-03-21T05:24:54.931Z,0
2017-03-21T05:26:03.995Z,0
2017-03-21T05:27:13.058Z,0
2017-03-21T05:28:22.067Z,0
2017-03-21T05:29:31.446Z,0
2017-03-21T05:30:40.445Z,0
2017-03-21T05:31:49.507Z,0
2017-03-21T05:32:58.578Z,0
2017-03-21T05:34:07.995Z,0
2017-03-21T05:35:17.071Z,0
2017-03-21T05:36:25.835Z,0
2017-03-21T05:37:35.202Z,0
2017-03-21T05:38:45.416Z,0
2017-03-21T05:39:55.100Z,0
2017-03-21T05:41:04.176Z,0
2017-03-21T05:42:13.544Z,0
2017-03-21T05:43:22.916Z,0
2017-03-21T05:44:32.942Z,0
2017-03-21T05:45:42.622Z,0
2017-03-21T05:46:51.682Z,0
2017-03-21T05:48:00.880Z,0
2017-03-21T05:49:10.262Z,0
2017-03-21T05:50:19.969Z,0
2017-03-21T05:51:29.192Z,0
2017-03-21T05:52:38.566Z,0
2017-03-21T05:53:47.933Z,0
2017-03-21T05:54:58.151Z,0
2017-03-21T05:56:06.924Z,0
2017-03-21T05:57:15.687Z,0
2017-03-21T05:58:25.259Z,0
2017-03-21T05:59:35.236Z,0
2017-03-21T06:00:44.603Z,5
2017-03-21T06:01:53.675Z,0
2017-03-21T06:03:03.043Z,0
2017-03-21T06:04:12.348Z,5
2017-03-21T06:05:21.715Z,5
2017-03-21T06:06:30.404Z,5
2017-03-21T06:07:39.710Z,5
2017-03-21T06:08:49.440Z,5
2017-03-21T06:09:58.827Z,5
2017-03-21T06:11:07.863Z,5
2017-03-21T06:12:17.160Z,10
2017-03-21T06:13:27.181Z,10
2017-03-21T06:14:36.256Z,10
2017-03-21T06:15:45.361Z,15
2017-03-21T06:16:54.362Z,10
2017-03-21T06:18:03.127Z,10
2017-03-21T06:19:12.131Z,5
2017-03-21T06:20:21.191Z,5
2017-03-21T06:21:29.956Z,5
2017-03-21T06:22:39.556Z,5
2017-03-21T06:23:48.557Z,5
2017-03-21T06:24:57.937Z,5
2017-03-21T06:26:07.008Z,5
2017-03-21T06:27:16.075Z,0
2017-03-21T06:28:25.756Z,0
2017-03-21T06:29:35.383Z,0
2017-03-21T06:30:44.150Z,0
2017-03-21T06:31:54.350Z,0
2017-03-21T06:33:03.424Z,0
2017-03-21T06:34:12.512Z,5
2017-03-21T06:35:21.867Z,5
2017-03-21T06:36:31.578Z,5
2017-03-21T06:37:40.951Z,5
2017-03-21T06:38:51.557Z,5
2017-03-21T06:40:01.439Z,5
2017-03-21T06:41:10.258Z,5
2017-03-21T06:42:19.565Z,10
2017-03-21T06:43:28.632Z,10
2017-03-21T06:44:38.008Z,10
2017-03-21T06:45:47.377Z,10
2017-03-21T06:46:56.442Z,15
2017-03-21T06:48:05.201Z,15
2017-03-21T06:49:14.211Z,15
2017-03-21T06:50:23.587Z,15
2017-03-21T06:51:32.351Z,15
2017-03-21T06:52:42.344Z,15
2017-03-21T06:53:52.016Z,15
2017-03-21T06:55:01.395Z,20
2017-03-21T06:56:10.155Z,15
2017-03-21T06:57:19.785Z,20
2017-03-21T06:58:29.461Z,20
2017-03-21T06:59:38.835Z,20
2017-03-21T07:00:47.597Z,20
2017-03-21T07:01:57.280Z,20
2017-03-21T07:03:06.666Z,20
2017-03-21T07:04:16.653Z,20
2017-03-21T07:05:26.023Z,20
2017-03-21T07:06:34.784Z,15
2017-03-21T07:07:44.168Z,15
2017-03-21T07:08:53.556Z,15
2017-03-21T07:10:02.930Z,15
2017-03-21T07:11:11.694Z,15
2017-03-21T07:12:20.468Z,20
2017-03-21T07:13:30.190Z,20
2017-03-21T07:14:39.154Z,25
2017-03-21T07:15:47.895Z,25
2017-03-21T07:16:56.653Z,25
2017-03-21T07:18:06.326Z,25
2017-03-21T07:19:15.694Z,25
2017-03-21T07:20:24.799Z,25
2017-03-21T07:21:33.557Z,25
2017-03-21T07:22:42.632Z,25
2017-03-21T07:23:52.614Z,25
2017-03-21T07:25:02.596Z,20
2017-03-21T07:26:11.672Z,30
2017-03-21T07:27:20.736Z,30
2017-03-21T07:28:29.488Z,40
2017-03-21T07:29:38.259Z,45
2017-03-21T07:30:47.030Z,55
2017-03-21T07:31:56.401Z,40
2017-03-21T07:33:05.713Z,40
2017-03-21T07:34:15.086Z,40
2017-03-21T07:35:24.453Z,50
2017-03-21T07:36:33.517Z,80
2017-03-21T07:37:42.895Z,75
2017-03-21T07:38:52.507Z,75
2017-03-21T07:40:01.878Z,50
2017-03-21T07:41:10.940Z,55
2017-03-21T07:42:20.293Z,75
2017-03-21T07:43:30.575Z,65
2017-03-21T07:44:39.650Z,90
2017-03-21T07:45:48.410Z,105
2017-03-21T07:46:57.440Z,105
2017-03-21T07:48:06.814Z,115
2017-03-21T07:49:16.802Z,105
2017-03-21T07:50:26.127Z,115
2017-03-21T07:51:34.887Z,130
2017-03-21T07:52:44.572Z,90
2017-03-21T07:53:54.558Z,95
2017-03-21T07:55:03.862Z,75
2017-03-21T07:56:12.935Z,55
2017-03-21T07:57:22.546Z,60
2017-03-21T07:58:32.531Z,60
2017-03-21T07:59:41.605Z,60
2017-03-21T08:00:50.372Z,55
2017-03-21T08:01:59.434Z,50
2017-03-21T08:03:08.207Z,50
2017-03-21T08:04:17.539Z,40
2017-03-21T08:05:26.314Z,35
2017-03-21T08:06:35.384Z,35
2017-03-21T08:07:44.998Z,35
2017-03-21T08:08:55.209Z,35
2017-03-21T08:10:04.512Z,30
2017-03-21T08:11:13.509Z,30
2017-03-21T08:12:23.190Z,30
2017-03-21T08:13:33.176Z,25
2017-03-21T08:14:42.481Z,15
2017-03-21T08:15:51.551Z,20
2017-03-21T08:17:00.317Z,30
2017-03-21T08:18:09.688Z,25
2017-03-21T08:19:19.074Z,25
2017-03-21T08:20:28.140Z,20
2017-03-21T08:21:37.209Z,40
2017-03-21T08:22:46.891Z,30
2017-03-21T08:23:57.226Z,35
2017-03-21T08:25:06.607Z,40
2017-03-21T08:26:15.653Z,35
2017-03-21T08:27:25.030Z,40
2017-03-21T08:28:35.013Z,35
2017-03-21T08:29:44.387Z,25
2017-03-21T08:30:53.455Z,25
2017-03-21T08:32:02.520Z,25
2017-03-21T08:33:11.277Z,20
2017-03-21T08:34:20.334Z,15
2017-03-21T08:35:29.102Z,15
2017-03-21T08:36:37.869Z,15
2017-03-21T08:37:46.640Z,15
2017-03-21T08:38:56.018Z,20
2017-03-21T08:40:05.943Z,20
2017-03-21T08:41:14.702Z,15
2017-03-21T08:42:23.765Z,15
2017-03-21T08:43:33.129Z,15
2017-03-21T08:44:41.899Z,25
2017-03-21T08:45:50.667Z,25
2017-03-21T08:46:59.432Z,20
2017-03-21T08:48:08.128Z,20
2017-03-21T08:49:16.881Z,15
2017-03-21T08:50:25.949Z,10
2017-03-21T08:51:34.946Z,10
2017-03-21T08:52:43.712Z,20
2017-03-21T08:53:52.488Z,25
2017-03-21T08:55:01.548Z,15
2017-03-21T08:56:10.327Z,15
2017-03-21T08:57:19.020Z,15
2017-03-21T08:58:28.391Z,5
2017-03-21T08:59:37.087Z,5
2017-03-21T09:00:46.155Z,5
2017-03-21T09:01:54.942Z,5
2017-03-21T09:03:04.002Z,5
2017-03-21T09:04:12.759Z,5
2017-03-21T09:05:21.529Z,10
2017-03-21T09:06:30.596Z,15
2017-03-21T09:07:39.606Z,10
2017-03-21T09:08:48.382Z,10
2017-03-21T09:09:57.708Z,5
2017-03-21T09:11:07.070Z,5
2017-03-21T09:12:15.827Z,5
2017-03-21T09:13:24.605Z,10
2017-03-21T09:14:33.908Z,30
2017-03-21T09:15:42.601Z,60
2017-03-21T09:16:51.672Z,160
2017-03-21T09:18:00.431Z,65
2017-03-21T09:19:09.428Z,50
2017-03-21T09:20:18.179Z,75
2017-03-21T09:21:26.938Z,40
2017-03-21T09:22:35.912Z,30
2017-03-21T09:23:44.974Z,25
2017-03-21T09:24:54.352Z,15
2017-03-21T09:26:03.426Z,15
2017-03-21T09:27:12.422Z,20
2017-03-21T09:28:21.485Z,25
2017-03-21T09:29:30.560Z,20
2017-03-21T09:30:39.310Z,20
2017-03-21T09:31:48.081Z,15
2017-03-21T09:32:57.353Z,15
2017-03-21T09:34:06.125Z,20
2017-03-21T09:35:15.125Z,75
2017-03-21T09:36:24.194Z,70
2017-03-21T09:37:32.960Z,120
2017-03-21T09:38:42.029Z,140
2017-03-21T09:39:51.406Z,105
2017-03-21T09:41:00.406Z,90
2017-03-21T09:42:09.138Z,95
2017-03-21T09:43:18.115Z,115
2017-03-21T09:44:27.791Z,100
2017-03-21T09:45:36.544Z,145
2017-03-21T09:46:45.599Z,140
2017-03-21T09:47:54.369Z,150
2017-03-21T09:49:03.408Z,240
2017-03-21T09:50:12.182Z,50
2017-03-21T09:51:21.243Z,40
2017-03-21T09:52:30.003Z,35
2017-03-21T09:53:39.312Z,30
2017-03-21T09:54:48.084Z,35
2017-03-21T09:55:56.846Z,25
2017-03-21T09:57:05.542Z,15
2017-03-21T09:58:14.617Z,5
2017-03-21T09:59:23.384Z,5
2017-03-21T10:00:32.145Z,5
2017-03-21T10:01:40.905Z,10
2017-03-21T10:02:49.979Z,15
2017-03-21T10:03:59.278Z,15
2017-03-21T10:05:08.643Z,15
2017-03-21T10:06:17.413Z,10
2017-03-21T10:07:26.432Z,30
2017-03-21T10:08:35.504Z,30
2017-03-21T10:09:44.575Z,20
2017-03-21T10:10:53.851Z,20
2017-03-21T10:12:02.626Z,15
2017-03-21T10:13:11.322Z,15
2017-03-21T10:14:20.093Z,10
2017-03-21T10:15:29.544Z,5
2017-03-21T10:16:38.306Z,10
2017-03-21T10:17:47.062Z,15
2017-03-21T10:18:55.822Z,15
2017-03-21T10:20:04.893Z,15
2017-03-21T10:21:13.841Z,15
2017-03-21T10:22:22.902Z,25
2017-03-21T10:23:31.970Z,35
2017-03-21T10:24:41.051Z,25
2017-03-21T10:25:49.815Z,15
2017-03-21T10:26:58.571Z,10
2017-03-21T10:28:07.644Z,10
2017-03-21T10:29:16.418Z,10
2017-03-21T10:30:25.492Z,20
2017-03-21T10:31:34.266Z,35
2017-03-21T10:32:43.002Z,45
2017-03-21T10:33:52.111Z,50
2017-03-21T10:35:01.493Z,50
2017-03-21T10:36:10.261Z,40
2017-03-21T10:37:19.037Z,45
2017-03-21T10:38:28.404Z,75
2017-03-21T10:39:37.403Z,55
2017-03-21T10:40:46.161Z,115
2017-03-21T10:41:54.922Z,150
2017-03-21T10:43:03.685Z,80
2017-03-21T10:44:13.063Z,60
2017-03-21T10:45:21.762Z,40
2017-03-21T10:46:30.522Z,35
2017-03-21T10:47:39.286Z,45
2017-03-21T10:48:48.287Z,20
2017-03-21T10:49:57.048Z,15
2017-03-21T10:51:05.741Z,15
2017-03-21T10:52:14.497Z,15
2017-03-21T10:53:23.262Z,20
2017-03-21T10:54:32.179Z,20
2017-03-21T10:55:40.939Z,20
2017-03-21T10:56:49.637Z,15
2017-03-21T10:57:58.400Z,15
2017-03-21T10:59:07.161Z,15
2017-03-21T11:00:15.918Z,15
2017-03-21T11:01:24.995Z,20
2017-03-21T11:02:33.777Z,20
2017-03-21T11:03:42.537Z,15
2017-03-21T11:04:51.599Z,20
2017-03-21T11:06:00.351Z,30
2017-03-21T11:07:09.114Z,40
2017-03-21T11:08:18.197Z,60
2017-03-21T11:09:26.951Z,70
2017-03-21T11:10:35.672Z,80
2017-03-21T11:11:44.428Z,65
2017-03-21T11:12:53.540Z,40
2017-03-21T11:14:02.306Z,30
2017-03-21T11:15:11.081Z,25
2017-03-21T11:16:19.847Z,20
2017-03-21T11:17:29.215Z,20
2017-03-21T11:18:38.527Z,15
2017-03-21T11:19:47.902Z,20
2017-03-21T11:20:56.664Z,20
2017-03-21T11:22:05.733Z,20
2017-03-21T11:23:14.492Z,25
2017-03-21T11:24:23.549Z,30
2017-03-21T11:25:32.570Z,30
2017-03-21T11:26:41.338Z,30
2017-03-21T11:27:50.403Z,35
2017-03-21T11:28:59.176Z,35
2017-03-21T11:30:08.242Z,35
2017-03-21T11:31:17.310Z,35
2017-03-21T11:32:26.722Z,35
2017-03-21T11:33:36.092Z,30
2017-03-21T11:34:44.831Z,30
2017-03-21T11:35:53.600Z,30
2017-03-21T11:37:02.668Z,25
2017-03-21T11:38:11.436Z,20
2017-03-21T11:39:20.199Z,25
2017-03-21T11:40:29.271Z,30
2017-03-21T11:41:38.032Z,25
2017-03-21T11:42:46.792Z,25
2017-03-21T11:43:55.561Z,25
2017-03-21T11:45:04.859Z,25
2017-03-21T11:46:13.616Z,20
2017-03-21T11:47:22.873Z,20
2017-03-21T11:48:31.936Z,20
2017-03-21T11:49:40.698Z,25
2017-03-21T11:50:49.465Z,30
2017-03-21T11:51:58.223Z,35
2017-03-21T11:53:06.982Z,40
2017-03-21T11:54:15.749Z,50
2017-03-21T11:55:25.053Z,65
2017-03-21T11:56:34.050Z,70
2017-03-21T11:57:42.810Z,90
2017-03-21T11:58:52.582Z,95
2017-03-21T12:00:01.359Z,95
2017-03-21T12:01:10.731Z,105
2017-03-21T12:02:19.498Z,105
2017-03-21T12:03:28.261Z,105
2017-03-21T12:04:37.259Z,105
2017-03-21T12:05:46.329Z,105
2017-03-21T12:06:55.035Z,95
2017-03-21T12:08:03.798Z,95
2017-03-21T12:09:13.674Z,85
2017-03-21T12:10:23.053Z,80
2017-03-21T12:11:32.134Z,85
2017-03-21T12:12:41.811Z,85
2017-03-21T12:13:50.576Z,80
2017-03-21T12:14:59.275Z,85
2017-03-21T12:16:08.034Z,85
2017-03-21T12:17:17.115Z,80
2017-03-21T12:18:25.874Z,80
2017-03-21T12:19:34.595Z,80
2017-03-21T12:20:43.352Z,80
2017-03-21T12:21:52.420Z,90
2017-03-21T12:23:01.794Z,85
2017-03-21T12:24:10.567Z,80
2017-03-21T12:25:19.325Z,70
2017-03-21T12:26:28.397Z,60
2017-03-21T12:27:37.461Z,60
2017-03-21T12:28:47.075Z,60
2017-03-21T12:29:56.453Z,70
2017-03-21T12:31:05.824Z,70
2017-03-21T12:32:14.593Z,60
2017-03-21T12:33:23.659Z,55
2017-03-21T12:34:33.030Z,50
2017-03-21T12:35:42.047Z,55
2017-03-21T12:36:51.114Z,55
2017-03-21T12:38:00.488Z,55
2017-03-21T12:39:09.180Z,55
2017-03-21T12:40:18.551Z,65
2017-03-21T12:41:27.307Z,65
2017-03-21T12:42:36.680Z,75
2017-03-21T12:43:45.445Z,75
2017-03-21T12:44:54.814Z,75
2017-03-21T12:46:03.584Z,80
2017-03-21T12:47:12.345Z,75
2017-03-21T12:48:21.651Z,60
2017-03-21T12:49:30.413Z,60
2017-03-21T12:50:39.168Z,55
2017-03-21T12:51:47.924Z,60
2017-03-21T12:52:56.991Z,55
2017-03-21T12:54:06.056Z,55
2017-03-21T12:55:15.119Z,55
2017-03-21T12:56:24.083Z,55
2017-03-21T12:57:33.164Z,55
2017-03-21T12:58:42.229Z,55
2017-03-21T12:59:50.989Z,55
2017-03-21T13:01:00.072Z,60
2017-03-21T13:02:08.842Z,55
2017-03-21T13:03:17.931Z,55
2017-03-21T13:04:26.692Z,65
2017-03-21T13:05:35.453Z,80
2017-03-21T13:06:44.517Z,70
2017-03-21T13:07:53.581Z,70
2017-03-21T13:09:02.645Z,75
2017-03-21T13:10:11.340Z,80
2017-03-21T13:11:20.407Z,85
2017-03-21T13:12:29.374Z,80
2017-03-21T13:13:38.069Z,85
2017-03-21T13:14:47.134Z,85
2017-03-21T13:15:55.902Z,75
2017-03-21T13:17:04.605Z,75
2017-03-21T13:18:13.977Z,70
2017-03-21T13:19:23.964Z,70
2017-03-21T13:20:33.342Z,70
2017-03-21T13:21:42.411Z,75
2017-03-21T13:22:51.714Z,70
2017-03-21T13:24:00.484Z,75
2017-03-21T13:25:09.543Z,80
2017-03-21T13:26:18.923Z,75
2017-03-21T13:27:28.597Z,65
2017-03-21T13:28:37.564Z,55
2017-03-21T13:29:46.321Z,45
2017-03-21T13:30:55.388Z,45
2017-03-21T13:32:04.989Z,45
2017-03-21T13:33:14.378Z,40
2017-03-21T13:34:23.446Z,40
2017-03-21T13:35:32.666Z,40
2017-03-21T13:36:41.710Z,35
2017-03-21T13:37:50.477Z,25
2017-03-21T13:38:59.801Z,25
2017-03-21T13:40:09.486Z,35
2017-03-21T13:41:18.862Z,50
2017-03-21T13:42:28.243Z,50
2017-03-21T13:43:37.001Z,50
2017-03-21T13:44:46.094Z,40
2017-03-21T13:45:54.854Z,35
2017-03-21T13:47:03.918Z,45
2017-03-21T13:48:12.680Z,50
2017-03-21T13:49:21.653Z,45
2017-03-21T13:50:30.409Z,35
2017-03-21T13:51:39.171Z,30
2017-03-21T13:52:48.547Z,30
2017-03-21T13:53:57.612Z,30
2017-03-21T13:55:06.311Z,25
2017-03-21T13:56:15.313Z,25
2017-03-21T13:57:24.386Z,20
2017-03-21T13:58:33.447Z,15
2017-03-21T13:59:42.146Z,15
2017-03-21T14:00:51.201Z,15
2017-03-21T14:01:59.966Z,25
2017-03-21T14:03:09.033Z,30
2017-03-21T14:04:18.406Z,30
2017-03-21T14:05:27.171Z,30
2017-03-21T14:06:36.170Z,35
2017-03-21T14:07:45.846Z,40
2017-03-21T14:08:54.607Z,40
2017-03-21T14:10:03.670Z,35
2017-03-21T14:11:12.433Z,35
2017-03-21T14:12:21.498Z,40
2017-03-21T14:13:30.260Z,40
2017-03-21T14:14:39.020Z,35
2017-03-21T14:15:48.085Z,35
2017-03-21T14:16:56.779Z,40
2017-03-21T14:18:05.540Z,45
2017-03-21T14:19:14.300Z,45
2017-03-21T14:20:23.062Z,50
2017-03-21T14:21:32.135Z,50
2017-03-21T14:22:41.102Z,50
2017-03-21T14:23:50.485Z,50
2017-03-21T14:24:59.556Z,50
2017-03-21T14:26:08.321Z,50
2017-03-21T14:27:18.003Z,45
2017-03-21T14:28:59.458Z,45
2017-03-21T14:30:08.259Z,40
2017-03-21T14:31:17.569Z,35
2017-03-21T14:32:26.630Z,40
2017-03-21T14:33:35.656Z,35
2017-03-21T14:34:44.955Z,30
2017-03-21T14:35:53.708Z,30
2017-03-21T14:37:02.473Z,30
2017-03-21T14:38:11.851Z,30
2017-03-21T14:39:20.920Z,35
2017-03-21T14:40:30.185Z,35
2017-03-21T14:41:38.896Z,35
2017-03-21T14:42:48.585Z,30
2017-03-21T14:43:57.662Z,20
2017-03-21T14:45:07.035Z,15
2017-03-21T14:46:15.801Z,10
2017-03-21T14:47:24.864Z,15
2017-03-21T14:48:33.927Z,20
2017-03-21T14:49:42.685Z,20
2017-03-21T14:50:51.746Z,20
2017-03-21T14:52:00.809Z,25
2017-03-21T14:53:09.698Z,30
2017-03-21T14:54:19.074Z,30
2017-03-21T14:55:28.289Z,35
2017-03-21T14:56:37.667Z,35
2017-03-21T14:57:47.351Z,35
2017-03-21T14:58:56.423Z,35
2017-03-21T15:00:05.488Z,35
2017-03-21T15:01:14.256Z,35
2017-03-21T15:02:23.020Z,35
2017-03-21T15:03:31.789Z,35
2017-03-21T15:04:40.856Z,35
2017-03-21T15:05:49.853Z,25
2017-03-21T15:06:58.920Z,30
2017-03-21T15:08:07.996Z,30
2017-03-21T15:09:17.370Z,35
2017-03-21T15:10:26.132Z,35
2017-03-21T15:11:34.946Z,30
2017-03-21T15:12:43.704Z,30
2017-03-21T15:13:52.468Z,30
2017-03-21T15:15:01.232Z,30
2017-03-21T15:16:10.613Z,30
2017-03-21T15:17:19.633Z,30
2017-03-21T15:18:28.478Z,25
2017-03-21T15:19:37.546Z,30
2017-03-21T15:20:46.635Z,30
2017-03-21T15:21:55.702Z,35
2017-03-21T15:23:04.759Z,35
2017-03-21T15:24:14.748Z,40
2017-03-21T15:25:23.448Z,40
2017-03-21T15:26:32.210Z,35
2017-03-21T15:27:40.905Z,35
2017-03-21T15:28:49.665Z,40
2017-03-21T15:29:58.740Z,35
2017-03-21T15:31:07.816Z,35
2017-03-21T15:32:16.572Z,35
2017-03-21T15:33:25.588Z,35
2017-03-21T15:34:35.307Z,35
2017-03-21T15:35:44.888Z,35
2017-03-21T15:36:53.881Z,35
2017-03-21T15:38:03.549Z,35
2017-03-21T15:39:12.304Z,35
2017-03-21T15:40:21.369Z,35
2017-03-21T15:41:30.689Z,30
2017-03-21T15:42:39.468Z,30
2017-03-21T15:43:48.534Z,30
2017-03-21T15:44:57.531Z,25
2017-03-21T15:46:06.299Z,30
2017-03-21T15:47:15.055Z,25
2017-03-21T15:48:24.421Z,25
2017-03-21T15:49:33.797Z,25
2017-03-21T15:50:42.870Z,25
2017-03-21T15:51:51.637Z,20
2017-03-21T15:53:00.399Z,20
2017-03-21T15:54:09.765Z,20
2017-03-21T15:55:18.534Z,20
2017-03-21T15:56:27.304Z,25
2017-03-21T15:57:36.307Z,20
2017-03-21T15:58:45.303Z,20
2017-03-21T15:59:54.060Z,20
2017-03-21T16:01:02.830Z,20
2017-03-21T16:02:11.901Z,20
2017-03-21T16:03:21.283Z,20
2017-03-21T16:04:30.361Z,20
2017-03-21T16:05:39.428Z,20
2017-03-21T16:06:48.434Z,20
2017-03-21T16:07:57.203Z,15
2017-03-21T16:09:06.571Z,15
2017-03-21T16:10:15.951Z,15
2017-03-21T16:11:24.652Z,15
2017-03-21T16:12:33.720Z,15
2017-03-21T16:13:42.795Z,15
2017-03-21T16:14:52.172Z,15
2017-03-21T16:16:01.243Z,15
2017-03-21T16:17:10.003Z,15
2017-03-21T16:18:19.823Z,20
2017-03-21T16:19:29.489Z,20
2017-03-21T16:20:38.245Z,15
2017-03-21T16:21:47.615Z,15
2017-03-21T16:22:56.382Z,15
2017-03-21T16:24:05.147Z,15
2017-03-21T16:25:14.223Z,15
2017-03-21T16:26:23.258Z,10
2017-03-21T16:27:32.030Z,10
2017-03-21T16:28:41.342Z,10
2017-03-21T16:29:50.102Z,10
2017-03-21T16:30:59.495Z,15
2017-03-21T16:32:08.256Z,15
2017-03-21T16:33:17.259Z,15
2017-03-21T16:34:26.624Z,10
2017-03-21T16:35:35.404Z,10
2017-03-21T16:36:44.169Z,10
2017-03-21T16:37:53.237Z,10
2017-03-21T16:39:02.509Z,10
2017-03-21T16:40:11.505Z,10
2017-03-21T16:41:20.274Z,10